createdAt,value
2019-03-08T00:01:05.165Z,26.02
2019-03-08T00:03:34.215Z,27.20
2019-03-08T00:06:03.238Z,27.00
2019-03-08T00:08:32.275Z,27.48
2019-03-08T00:11:02.407Z,26.55
2019-03-08T00:13:31.486Z,26.68
2019-03-08T00:16:00.607Z,25.77
2019-03-08T00:18:29.658Z,25.32
2019-03-08T00:20:58.755Z,26.35
2019-03-08T00:23:27.988Z,26.52
2019-03-08T00:25:57.161Z,26.93
2019-03-08T00:28:26.157Z,27.35
2019-03-08T00:30:55.180Z,26.93
2019-03-08T00:33:24.319Z,27.02
2019-03-08T00:35:53.454Z,26.00
2019-03-08T00:38:22.577Z,25.37
2019-03-08T00:40:51.645Z,25.82
2019-03-08T00:43:20.707Z,26.55
2019-03-08T00:45:50.829Z,26.05
2019-03-08T00:48:19.931Z,27.00
2019-03-08T00:50:49.036Z,26.45
2019-03-08T00:53:18.189Z,24.52
2019-03-08T00:55:47.422Z,25.00
2019-03-08T00:58:16.542Z,23.87
2019-03-08T01:00:45.695Z,25.62
2019-03-08T01:03:15.291Z,26.50
2019-03-08T01:05:44.359Z,25.23
2019-03-08T01:08:13.611Z,25.00
2019-03-08T01:10:42.731Z,23.42
2019-03-08T01:13:11.831Z,25.23
2019-03-08T01:15:41.017Z,25.05
2019-03-08T01:18:10.108Z,25.20
2019-03-08T01:20:39.860Z,26.35
2019-03-08T01:23:08.946Z,25.52
2019-03-08T01:25:38.008Z,23.85
2019-03-08T01:28:10.483Z,25.08
2019-03-08T01:30:39.990Z,24.25
2019-03-08T01:33:09.163Z,25.10
2019-03-08T01:35:38.290Z,24.05
2019-03-08T01:38:07.483Z,25.30
2019-03-08T01:40:36.502Z,23.87
2019-03-08T01:43:06.348Z,24.23
2019-03-08T01:45:35.512Z,24.05
2019-03-08T01:48:04.682Z,24.90
2019-03-08T01:50:33.819Z,24.45
2019-03-08T01:53:02.908Z,23.45
2019-03-08T01:55:32.016Z,24.15
2019-03-08T01:58:01.198Z,25.25
2019-03-08T02:00:30.121Z,25.17
2019-03-08T02:02:59.509Z,23.45
2019-03-08T02:05:28.617Z,25.82
2019-03-08T02:07:57.706Z,27.60
2019-03-08T02:10:26.787Z,26.90
2019-03-08T02:12:55.807Z,29.92
2019-03-08T02:15:24.888Z,30.70
2019-03-08T02:17:54.652Z,32.80
2019-03-08T02:20:23.895Z,28.75
2019-03-08T02:22:52.879Z,28.87
2019-03-08T02:25:21.983Z,29.20
2019-03-08T02:27:51.039Z,30.05
2019-03-08T02:30:20.289Z,30.57
2019-03-08T02:32:49.160Z,32.00
2019-03-08T02:35:18.842Z,30.50
2019-03-08T02:37:48.038Z,30.75
2019-03-08T02:40:26.903Z,32.23
2019-03-08T02:42:55.867Z,31.02
2019-03-08T02:45:24.968Z,31.85
2019-03-08T02:47:53.995Z,30.60
2019-03-08T02:50:23.540Z,32.45
2019-03-08T02:52:52.475Z,32.80
2019-03-08T02:55:21.607Z,32.85
2019-03-08T02:57:51.325Z,34.27
2019-03-08T03:00:20.647Z,33.18
2019-03-08T03:02:49.753Z,34.18
2019-03-08T03:05:18.895Z,33.13
2019-03-08T03:07:47.966Z,34.35
2019-03-08T03:10:17.132Z,33.45
2019-03-08T03:12:46.183Z,34.38
2019-03-08T03:15:15.279Z,42.15
2019-03-08T03:17:44.390Z,59.55
2019-03-08T03:20:13.639Z,79.65
2019-03-08T03:22:42.728Z,74.42
2019-03-08T03:25:11.799Z,86.65
2019-03-08T03:27:40.866Z,60.52
2019-03-08T03:30:10.234Z,55.28
2019-03-08T03:32:39.300Z,54.58
2019-03-08T03:35:08.660Z,49.83
2019-03-08T03:37:37.719Z,41.50
2019-03-08T03:40:07.897Z,21.57
2019-03-08T03:42:36.951Z,24.25
2019-03-08T03:45:06.400Z,24.95
2019-03-08T03:47:35.584Z,23.45
2019-03-08T03:50:05.123Z,22.98
2019-03-08T03:52:34.189Z,23.07
2019-03-08T03:55:03.331Z,22.02
2019-03-08T03:57:32.445Z,21.77
2019-03-08T04:00:01.624Z,22.20
2019-03-08T04:02:30.755Z,23.70
2019-03-08T04:05:00.437Z,25.02
2019-03-08T04:07:30.290Z,22.77
2019-03-08T04:09:59.420Z,25.75
2019-03-08T04:12:28.447Z,24.67
2019-03-08T04:14:57.550Z,23.90
2019-03-08T04:17:26.689Z,24.15
2019-03-08T04:19:55.738Z,22.20
2019-03-08T04:22:24.847Z,50.43
2019-03-08T04:24:53.985Z,22.37
2019-03-08T04:27:23.063Z,21.93
2019-03-08T04:29:52.227Z,31.82
2019-03-08T04:32:21.361Z,68.65
2019-03-08T04:34:50.239Z,68.87
2019-03-08T04:37:19.408Z,41.35
2019-03-08T04:39:48.885Z,42.95
2019-03-08T04:42:17.902Z,29.87
2019-03-08T04:44:47.008Z,21.05
2019-03-08T04:47:16.159Z,20.05
2019-03-08T05:06:29.477Z,23.80
2019-03-08T05:08:58.280Z,23.22
2019-03-08T05:11:27.366Z,22.05
2019-03-08T05:13:56.511Z,23.45
2019-03-08T05:16:25.524Z,23.70
2019-03-08T05:18:54.653Z,24.23
2019-03-08T05:21:23.781Z,25.02
2019-03-08T05:23:52.823Z,23.57
2019-03-08T05:26:21.916Z,24.00
2019-03-08T05:28:51.044Z,22.37
2019-03-08T05:31:20.179Z,24.07
2019-03-08T05:33:49.417Z,23.22
2019-03-08T05:36:18.574Z,41.73
2019-03-08T05:38:48.363Z,44.65
2019-03-08T05:41:17.444Z,51.83
2019-03-08T05:43:46.544Z,93.25
2019-03-08T05:46:15.531Z,67.58
2019-03-08T05:48:44.606Z,107.60
2019-03-08T05:51:13.643Z,61.42
2019-03-08T05:53:42.792Z,72.82
2019-03-08T05:56:11.876Z,62.90
2019-03-08T05:58:41.052Z,64.67
2019-03-08T06:01:10.312Z,66.28
2019-03-08T06:03:39.473Z,61.00
2019-03-08T06:06:08.732Z,56.70
2019-03-08T06:08:37.816Z,59.00
2019-03-08T06:11:06.986Z,199.72
2019-03-08T06:13:36.049Z,81.70
2019-03-08T06:16:05.079Z,56.42
2019-03-08T06:18:34.120Z,54.65
2019-03-08T06:21:03.235Z,53.42
2019-03-08T06:23:32.527Z,47.60
2019-03-08T06:26:01.709Z,49.40
2019-03-08T06:28:31.341Z,50.70
2019-03-08T06:31:00.544Z,49.23
2019-03-08T06:33:29.875Z,50.33
2019-03-08T06:35:59.146Z,49.65
2019-03-08T06:38:28.644Z,49.38
2019-03-08T06:40:58.420Z,48.45
2019-03-08T06:43:27.595Z,48.02
2019-03-08T06:45:56.812Z,47.00
2019-03-08T06:48:26.155Z,45.88
2019-03-08T06:50:55.953Z,46.05
2019-03-08T06:53:25.309Z,42.55
2019-03-08T06:55:54.509Z,38.42
2019-03-08T06:58:35.677Z,36.83
2019-03-08T07:01:07.095Z,32.30
2019-03-08T07:03:36.153Z,28.12
2019-03-08T07:06:05.415Z,27.50
2019-03-08T07:08:34.603Z,29.07
2019-03-08T07:11:03.814Z,29.00
2019-03-08T07:13:33.027Z,30.55
2019-03-08T07:16:02.401Z,31.23
2019-03-08T07:18:31.603Z,32.00
2019-03-08T07:21:05.203Z,31.30
2019-03-08T07:23:43.334Z,30.53
2019-03-08T07:30:57.949Z,26.97
2019-03-08T08:07:35.562Z,34.80
2019-03-08T08:10:14.459Z,31.13
2019-03-08T08:12:48.869Z,30.23
2019-03-08T08:15:28.211Z,32.10
2019-03-08T08:18:01.400Z,34.70
2019-03-08T08:20:34.665Z,31.90
2019-03-08T08:23:39.256Z,32.97
2019-03-08T08:26:27.831Z,31.33
2019-03-08T08:31:04.906Z,28.57
2019-03-08T08:33:46.331Z,27.87
2019-03-08T08:36:25.128Z,27.43
2019-03-08T08:39:10.457Z,25.50
2019-03-08T08:42:48.581Z,25.07
2019-03-08T08:47:28.720Z,24.10
2019-03-08T08:50:21.117Z,26.50
2019-03-08T08:52:59.234Z,25.70
2019-03-08T08:55:36.200Z,24.80
2019-03-08T08:58:46.351Z,23.33
2019-03-08T09:01:25.575Z,22.90
2019-03-08T09:04:00.016Z,22.87
2019-03-08T09:06:34.379Z,23.20
2019-03-08T09:09:15.675Z,23.83
2019-03-08T09:11:55.985Z,24.13
2019-03-08T09:14:32.179Z,23.77
2019-03-08T09:17:09.621Z,22.93
2019-03-08T09:19:46.876Z,24.53
2019-03-08T09:22:23.686Z,23.97
2019-03-08T09:24:58.899Z,24.13
2019-03-08T09:29:41.306Z,22.40
2019-03-08T09:32:24.822Z,22.37
2019-03-08T09:35:57.087Z,24.03
2019-03-08T09:38:39.287Z,19.10
2019-03-08T09:41:49.014Z,20.80
2019-03-08T09:46:31.237Z,21.83
2019-03-08T09:49:08.413Z,18.33
2019-03-08T09:51:58.615Z,17.60
2019-03-08T09:54:34.874Z,19.87
2019-03-08T09:57:09.256Z,21.50
2019-03-08T09:59:43.536Z,20.43
2019-03-08T10:02:48.100Z,22.00
2019-03-08T10:05:41.520Z,21.77
2019-03-08T10:08:16.760Z,20.80
2019-03-08T10:10:53.872Z,22.67
2019-03-08T10:13:29.912Z,22.00
2019-03-08T10:16:10.056Z,21.83
2019-03-08T10:18:45.296Z,21.47
2019-03-08T10:21:19.532Z,20.97
2019-03-08T10:23:54.428Z,21.37
2019-03-08T10:26:35.865Z,21.07
2019-03-08T10:29:43.820Z,20.93
2019-03-08T10:32:23.966Z,21.23
2019-03-08T10:35:08.245Z,21.37
2019-03-08T10:37:48.527Z,19.83
2019-03-08T10:40:28.764Z,21.27
2019-03-08T10:43:06.047Z,21.83
2019-03-08T10:45:55.321Z,19.83
2019-03-08T10:48:29.791Z,20.63
2019-03-08T10:51:04.092Z,21.47
2019-03-08T10:53:42.359Z,22.57
2019-03-08T10:56:20.608Z,20.70
2019-03-08T10:58:58.792Z,20.90
2019-03-08T11:01:39.240Z,21.03
2019-03-08T11:04:14.910Z,20.50
2019-03-08T11:06:51.153Z,21.43
2019-03-08T11:09:25.081Z,20.60
2019-03-08T11:13:02.702Z,20.50
2019-03-08T11:15:51.454Z,19.50
2019-03-08T11:18:31.540Z,22.07
2019-03-08T11:21:05.669Z,19.00
2019-03-08T11:23:40.880Z,20.23
2019-03-08T11:26:15.034Z,20.57
2019-03-08T11:28:50.183Z,20.33
2019-03-08T11:31:56.739Z,19.70
2019-03-08T11:34:31.300Z,20.73
2019-03-08T11:37:04.682Z,19.33
2019-03-08T11:39:40.842Z,19.87
2019-03-08T11:42:14.656Z,20.23
2019-03-08T11:45:50.736Z,20.93
2019-03-08T11:49:27.922Z,19.70
2019-03-08T11:52:04.133Z,20.83
2019-03-08T11:55:09.659Z,19.87
2019-03-08T11:57:42.934Z,20.10
2019-03-08T12:00:17.252Z,20.03
2019-03-08T12:02:54.474Z,19.60
2019-03-08T12:05:37.632Z,18.70
2019-03-08T12:08:17.838Z,18.43
2019-03-08T12:10:55.948Z,18.50
2019-03-08T12:13:32.307Z,17.57
2019-03-08T12:16:07.505Z,15.77
2019-03-08T12:18:48.698Z,13.67
2019-03-08T12:21:23.188Z,15.20
2019-03-08T12:23:57.598Z,14.13
2019-03-08T12:26:31.763Z,11.90
2019-03-08T12:29:06.269Z,11.57
2019-03-08T12:32:00.786Z,12.67
2019-03-08T12:34:37.026Z,11.77
2019-03-08T12:37:18.224Z,9.63
2019-03-08T12:39:52.422Z,9.90
2019-03-08T12:42:26.921Z,9.50
2019-03-08T12:46:01.964Z,8.33
2019-03-08T12:48:36.077Z,8.17
2019-03-08T12:51:30.184Z,8.17
2019-03-08T12:54:10.456Z,8.00
2019-03-08T12:57:00.782Z,6.63
2019-03-08T12:59:39.113Z,6.90
2019-03-08T13:02:13.098Z,6.40
2019-03-08T13:04:47.511Z,5.80
2019-03-08T13:08:28.682Z,5.13
2019-03-08T13:10:57.949Z,8.27
2019-03-08T13:13:27.971Z,5.00
2019-03-08T13:15:57.591Z,5.37
2019-03-08T13:18:26.808Z,5.53
2019-03-08T13:20:56.625Z,5.77
2019-03-08T13:23:25.917Z,5.10
2019-03-08T13:25:55.137Z,5.03
2019-03-08T13:28:24.291Z,5.73
2019-03-08T13:30:53.452Z,7.87
2019-03-08T13:33:22.862Z,5.50
2019-03-08T13:35:52.054Z,4.77
2019-03-08T13:38:21.179Z,4.63
2019-03-08T13:40:50.448Z,5.20
2019-03-08T13:43:19.684Z,5.10
2019-03-08T13:45:48.807Z,4.70
2019-03-08T13:48:17.928Z,4.20
2019-03-08T13:50:46.971Z,4.37
2019-03-08T13:53:16.422Z,5.00
2019-03-08T13:55:45.643Z,4.90
2019-03-08T13:58:14.802Z,6.57
2019-03-08T14:00:44.037Z,7.43
2019-03-08T14:03:13.182Z,5.57
2019-03-08T14:05:42.299Z,5.13
2019-03-08T14:08:11.332Z,4.23
2019-03-08T14:10:40.478Z,4.43
2019-03-08T14:13:09.705Z,4.13
2019-03-08T14:15:38.935Z,4.80
2019-03-08T14:18:08.121Z,4.77
2019-03-08T14:20:37.675Z,4.63
2019-03-08T14:23:07.070Z,5.13
2019-03-08T14:25:36.650Z,5.03
2019-03-08T14:45:07.688Z,3.63
2019-03-08T14:47:39.059Z,3.67
2019-03-08T14:50:10.202Z,3.80
2019-03-08T14:52:39.597Z,4.00
2019-03-08T14:55:11.451Z,4.03
2019-03-08T14:57:40.700Z,3.63
2019-03-08T15:00:14.657Z,3.63
2019-03-08T15:02:47.149Z,4.53
2019-03-08T15:05:15.502Z,3.97
2019-03-08T15:07:42.260Z,4.27
2019-03-08T15:10:12.342Z,4.03
2019-03-08T15:12:49.000Z,3.60
2019-03-08T15:15:12.785Z,4.20
2019-03-08T15:17:40.970Z,3.60
2019-03-08T15:20:15.201Z,4.50
2019-03-08T15:22:41.034Z,4.17
2019-03-08T15:25:12.649Z,4.03
2019-03-08T15:27:40.010Z,5.10
2019-03-08T15:30:11.389Z,4.30
2019-03-08T15:32:40.800Z,4.80
2019-03-08T15:35:10.766Z,4.30
2019-03-08T15:37:44.090Z,4.00
2019-03-08T16:10:30.641Z,6.80
2019-03-08T16:12:59.586Z,25.03
2019-03-08T16:15:28.687Z,22.00
2019-03-08T16:17:57.777Z,9.23
2019-03-08T16:20:26.736Z,7.40
2019-03-08T16:22:55.667Z,6.57
2019-03-08T16:25:24.803Z,7.93
2019-03-08T16:27:53.795Z,625.70
2019-03-08T16:30:27.144Z,577.60
2019-03-08T16:33:00.787Z,999.90
2019-03-08T16:52:19.091Z,179.10
2019-03-08T16:54:55.284Z,222.23
2019-03-08T16:57:29.476Z,187.60
2019-03-08T17:00:03.721Z,395.23
2019-03-08T17:02:38.964Z,16.50
2019-03-08T17:05:12.365Z,9.43
2019-03-08T17:09:56.268Z,9.80
2019-03-08T17:12:30.330Z,10.70
2019-03-08T17:15:04.554Z,9.57
2019-03-08T17:35:23.943Z,8.07
2019-03-08T17:37:58.956Z,8.70
2019-03-08T17:40:39.058Z,9.00
2019-03-08T17:43:12.961Z,8.27
2019-03-08T17:45:58.130Z,22.33
2019-03-08T17:48:39.270Z,8.50
2019-03-08T17:51:16.190Z,9.13
2019-03-08T17:53:52.160Z,8.07
2019-03-08T17:56:33.248Z,18.30
2019-03-08T18:01:12.126Z,63.27
2019-03-08T18:05:49.861Z,111.23
2019-03-08T18:09:22.632Z,155.17
2019-03-08T18:30:48.331Z,12.83
2019-03-08T18:33:25.058Z,8.53
2019-03-08T18:36:32.153Z,7.97
2019-03-08T18:39:13.954Z,9.23
2019-03-08T18:42:45.640Z,11.50
2019-03-08T18:45:19.811Z,27.70
2019-03-08T18:47:54.008Z,13.70
2019-03-08T18:50:36.042Z,11.80
2019-03-08T18:53:42.305Z,9.50
2019-03-08T18:56:16.477Z,13.13
2019-03-08T18:58:50.607Z,13.63
2019-03-08T19:01:31.848Z,14.27
2019-03-08T19:04:06.079Z,15.47
2019-03-08T19:06:40.684Z,15.80
2019-03-08T19:26:05.417Z,16.83
2019-03-08T19:28:53.663Z,16.80
2019-03-08T19:48:28.395Z,30.97
2019-03-08T19:51:04.400Z,23.17
2019-03-08T19:53:38.735Z,18.77
2019-03-08T19:56:17.721Z,18.53
2019-03-08T19:58:52.222Z,18.27
2019-03-08T20:01:26.628Z,20.40
2019-03-08T20:04:12.904Z,18.23
2019-03-08T20:27:04.675Z,25.53
2019-03-08T20:29:37.911Z,21.60
2019-03-08T20:32:32.180Z,19.80
2019-03-08T20:35:05.436Z,21.17
2019-03-08T20:37:41.758Z,21.57
2019-03-08T20:40:18.159Z,20.23
2019-03-08T20:59:32.287Z,22.37
2019-03-08T21:02:01.975Z,20.07
2019-03-08T21:04:31.051Z,22.30
2019-03-08T21:07:00.127Z,21.57
2019-03-08T21:09:29.813Z,19.60
2019-03-08T21:11:58.949Z,20.37
2019-03-08T21:14:28.027Z,20.53
2019-03-08T21:16:57.092Z,20.87
2019-03-08T21:19:27.601Z,22.40
2019-03-08T21:21:56.449Z,21.83
2019-03-08T21:24:25.503Z,21.10
2019-03-08T21:26:54.494Z,21.50
2019-03-08T21:29:23.652Z,21.83
2019-03-08T21:31:52.791Z,24.23
2019-03-08T21:34:21.899Z,25.27
2019-03-08T21:36:51.036Z,22.57
2019-03-08T21:39:20.251Z,23.77
2019-03-08T21:41:49.294Z,22.53
2019-03-08T21:44:18.424Z,23.80
2019-03-08T21:46:48.093Z,23.77
2019-03-08T21:49:16.836Z,24.47
2019-03-08T21:51:45.923Z,22.27
2019-03-08T21:54:21.269Z,23.00
2019-03-08T21:56:50.371Z,23.27
2019-03-08T21:59:19.530Z,23.00
2019-03-08T22:01:48.600Z,22.27
2019-03-08T22:04:22.558Z,21.80
2019-03-08T22:06:51.685Z,16.70
2019-03-08T22:09:24.860Z,18.53
2019-03-08T22:11:53.908Z,20.23
2019-03-08T22:14:22.991Z,20.13
2019-03-08T22:16:52.100Z,21.27
2019-03-08T22:19:21.195Z,19.87
2019-03-08T22:21:50.306Z,21.93
2019-03-08T22:24:19.404Z,20.53
2019-03-08T22:26:48.506Z,22.10
2019-03-08T22:29:17.590Z,26.05
2019-03-08T22:31:46.874Z,29.87
2019-03-08T22:34:16.075Z,28.30
2019-03-08T22:36:45.203Z,25.97
2019-03-08T22:39:14.311Z,25.50
2019-03-08T22:41:43.913Z,21.67
2019-03-08T22:44:12.988Z,20.92
2019-03-08T22:46:45.129Z,21.00
2019-03-08T22:49:11.262Z,21.93
2019-03-08T22:51:40.503Z,21.37
2019-03-08T22:54:09.480Z,20.45
2019-03-08T22:56:38.565Z,22.02
2019-03-08T22:59:07.663Z,20.40
2019-03-08T23:01:47.646Z,20.62
2019-03-08T23:04:16.719Z,20.65
2019-03-08T23:06:45.784Z,20.08
2019-03-08T23:09:15.668Z,19.42
2019-03-08T23:11:44.728Z,18.77
2019-03-08T23:14:13.784Z,18.73
2019-03-08T23:16:42.978Z,20.25
2019-03-08T23:19:12.131Z,19.87
2019-03-08T23:21:41.185Z,20.23
2019-03-08T23:24:10.440Z,28.35
2019-03-08T23:26:44.565Z,25.32
2019-03-08T23:29:17.853Z,20.57
2019-03-08T23:31:52.866Z,20.55
2019-03-08T23:34:22.036Z,19.10
2019-03-08T23:36:51.124Z,20.00
2019-03-08T23:39:20.325Z,19.65
2019-03-08T23:41:50.859Z,16.82
2019-03-08T23:44:19.947Z,18.07
2019-03-08T23:46:48.973Z,17.52
2019-03-08T23:49:18.206Z,18.23
2019-03-08T23:51:47.979Z,21.15
2019-03-08T23:54:16.959Z,21.68
2019-03-08T23:56:45.994Z,18.02
2019-03-08T23:59:15.046Z,17.48
